createdAt,value
2022-12-18T00:01:40.153Z,25.73
2022-12-18T00:04:07.241Z,26.70
2022-12-18T00:06:34.366Z,24.52
2022-12-18T00:09:01.167Z,25.38
2022-12-18T00:11:27.868Z,25.58
2022-12-18T00:13:54.596Z,26.20
2022-12-18T00:16:21.901Z,27.30
2022-12-18T00:18:48.674Z,27.15
2022-12-18T00:21:15.374Z,26.30
2022-12-18T00:23:42.478Z,25.30
2022-12-18T00:26:10.416Z,25.02
2022-12-18T00:28:37.152Z,25.48
2022-12-18T00:31:04.045Z,25.83
2022-12-18T00:33:30.753Z,25.90
2022-12-18T00:35:57.457Z,25.40
2022-12-18T00:38:24.134Z,27.05
2022-12-18T00:40:51.327Z,24.83
2022-12-18T00:43:18.027Z,26.15
2022-12-18T00:45:45.323Z,25.80
2022-12-18T00:48:12.165Z,25.42
2022-12-18T00:50:39.223Z,26.55
2022-12-18T00:53:05.937Z,26.02
2022-12-18T00:55:32.693Z,24.42
2022-12-18T00:57:59.430Z,25.42
2022-12-18T01:00:26.186Z,24.85
2022-12-18T01:02:53.071Z,24.67
2022-12-18T01:05:19.805Z,23.00
2022-12-18T01:07:46.548Z,25.20
2022-12-18T01:10:13.932Z,24.55
2022-12-18T01:12:40.629Z,24.63
2022-12-18T01:15:07.396Z,23.50
2022-12-18T01:17:34.074Z,24.00
2022-12-18T01:20:01.363Z,25.17
2022-12-18T01:22:28.054Z,24.40
2022-12-18T01:24:54.828Z,24.08
2022-12-18T01:27:23.142Z,24.15
2022-12-18T01:29:52.014Z,22.38
2022-12-18T01:32:19.840Z,22.65
2022-12-18T01:34:46.560Z,23.33
2022-12-18T01:37:13.269Z,23.98
2022-12-18T01:39:40.067Z,24.13
2022-12-18T01:42:06.766Z,24.58
2022-12-18T01:44:33.446Z,22.20
2022-12-18T01:47:00.210Z,22.23
2022-12-18T01:49:26.902Z,21.38
2022-12-18T01:51:53.687Z,23.30
2022-12-18T01:54:20.385Z,21.30
2022-12-18T01:56:47.607Z,20.40
2022-12-18T01:59:14.285Z,21.98
2022-12-18T02:01:41.171Z,21.45
2022-12-18T02:04:09.496Z,23.05
2022-12-18T02:06:37.906Z,22.90
2022-12-18T02:09:05.241Z,25.42
2022-12-18T02:11:31.978Z,22.55
2022-12-18T02:13:58.673Z,21.23
2022-12-18T02:16:26.701Z,20.23
2022-12-18T02:18:53.531Z,19.23
2022-12-18T02:21:20.193Z,20.33
2022-12-18T02:23:46.917Z,20.77
2022-12-18T02:26:13.618Z,20.45
2022-12-18T02:28:40.380Z,21.73
2022-12-18T02:31:07.183Z,22.08
2022-12-18T02:33:34.777Z,20.02
2022-12-18T02:36:01.632Z,19.48
2022-12-18T02:38:29.263Z,19.58
2022-12-18T02:40:57.652Z,18.13
2022-12-18T02:43:24.371Z,19.63
2022-12-18T02:45:51.514Z,19.90
2022-12-18T02:48:19.204Z,19.45
2022-12-18T02:50:46.003Z,18.75
2022-12-18T02:53:12.696Z,17.83
2022-12-18T02:55:39.435Z,17.13
2022-12-18T02:58:08.555Z,17.73
2022-12-18T03:00:38.633Z,17.75
2022-12-18T03:03:05.468Z,18.95
2022-12-18T03:05:32.228Z,18.63
2022-12-18T03:07:59.026Z,19.90
2022-12-18T03:10:29.419Z,18.65
2022-12-18T03:12:56.299Z,17.67
2022-12-18T03:15:23.109Z,18.38
2022-12-18T03:17:55.567Z,18.13
2022-12-18T03:20:27.067Z,17.55
2022-12-18T03:22:53.762Z,18.23
2022-12-18T03:25:21.590Z,20.25
2022-12-18T03:27:48.610Z,19.90
2022-12-18T03:30:18.273Z,21.35
2022-12-18T03:32:45.674Z,19.77
2022-12-18T03:35:13.070Z,20.55
2022-12-18T03:37:44.759Z,20.25
2022-12-18T03:40:11.539Z,18.92
2022-12-18T03:42:38.307Z,19.25
2022-12-18T03:45:09.910Z,19.45
2022-12-18T03:47:38.631Z,18.85
2022-12-18T03:50:12.317Z,16.58
2022-12-18T03:52:40.418Z,18.27
2022-12-18T03:55:08.576Z,18.60
2022-12-18T03:57:35.467Z,19.65
2022-12-18T04:00:04.878Z,18.52
2022-12-18T04:02:40.710Z,18.90
2022-12-18T04:05:08.372Z,17.35
2022-12-18T04:07:38.432Z,17.85
2022-12-18T04:10:07.350Z,18.75
2022-12-18T04:12:34.518Z,17.60
2022-12-18T04:15:01.249Z,18.77
2022-12-18T04:17:27.964Z,19.27
2022-12-18T04:19:54.816Z,19.05
2022-12-18T04:22:23.023Z,17.80
2022-12-18T04:24:56.008Z,19.75
2022-12-18T04:27:30.392Z,18.65
2022-12-18T04:29:59.393Z,18.83
2022-12-18T04:32:26.067Z,18.08
2022-12-18T04:34:52.828Z,18.40
2022-12-18T04:37:19.877Z,18.75
2022-12-18T04:39:49.389Z,18.42
2022-12-18T04:42:23.639Z,19.02
2022-12-18T04:44:50.334Z,19.45
2022-12-18T04:47:17.010Z,19.85
2022-12-18T04:49:43.699Z,18.50
2022-12-18T04:52:10.438Z,19.27
2022-12-18T04:54:37.106Z,19.45
2022-12-18T04:57:04.045Z,19.58
2022-12-18T04:59:30.790Z,20.20
2022-12-18T05:01:57.542Z,19.92
2022-12-18T05:04:24.383Z,20.55
2022-12-18T05:06:51.088Z,19.58
2022-12-18T05:09:17.794Z,20.15
2022-12-18T05:11:46.264Z,20.02
2022-12-18T05:14:13.052Z,18.58
2022-12-18T05:16:39.760Z,19.33
2022-12-18T05:19:06.419Z,19.98
2022-12-18T05:21:33.215Z,20.10
2022-12-18T05:24:00.335Z,20.10
2022-12-18T05:26:27.067Z,19.15
2022-12-18T05:28:53.740Z,20.60
2022-12-18T05:31:20.513Z,20.25
2022-12-18T05:33:47.310Z,19.17
2022-12-18T05:36:14.078Z,19.70
2022-12-18T05:38:40.853Z,20.40
2022-12-18T05:41:07.562Z,19.27
2022-12-18T05:43:34.214Z,20.60
2022-12-18T05:46:00.891Z,20.65
2022-12-18T05:48:27.592Z,21.08
2022-12-18T05:50:54.361Z,19.92
2022-12-18T05:53:21.091Z,20.20
2022-12-18T05:55:47.808Z,21.35
2022-12-18T05:58:14.530Z,21.58
2022-12-18T06:00:41.197Z,20.33
2022-12-18T06:03:08.012Z,20.92
2022-12-18T06:05:34.874Z,20.17
2022-12-18T06:08:01.586Z,20.52
2022-12-18T06:10:28.428Z,21.05
2022-12-18T06:12:55.121Z,19.75
2022-12-18T06:15:21.820Z,20.05
2022-12-18T06:17:48.542Z,20.35
2022-12-18T06:20:15.218Z,21.00
2022-12-18T06:22:42.263Z,20.73
2022-12-18T06:25:08.998Z,19.75
2022-12-18T06:27:35.693Z,20.23
2022-12-18T06:30:02.902Z,20.15
2022-12-18T06:32:29.637Z,19.73
2022-12-18T06:34:56.450Z,20.40
2022-12-18T06:37:25.912Z,19.55
2022-12-18T06:39:52.613Z,19.45
2022-12-18T06:42:19.300Z,19.50
2022-12-18T06:44:48.769Z,18.85
2022-12-18T06:47:15.535Z,20.05
2022-12-18T06:49:42.253Z,19.05
2022-12-18T06:52:08.895Z,18.55
2022-12-18T06:54:35.600Z,19.60
2022-12-18T06:57:02.378Z,18.83
2022-12-18T06:59:29.053Z,17.92
2022-12-18T07:01:56.111Z,18.48
2022-12-18T07:04:22.941Z,19.10
2022-12-18T07:06:49.687Z,18.52
2022-12-18T07:09:16.496Z,19.08
2022-12-18T07:11:43.184Z,18.88
2022-12-18T07:14:09.971Z,18.88
2022-12-18T07:16:36.652Z,19.38
2022-12-18T07:19:03.473Z,19.33
2022-12-18T07:21:30.163Z,18.65
2022-12-18T07:23:56.852Z,19.17
2022-12-18T07:26:23.702Z,19.45
2022-12-18T07:28:50.448Z,19.17
2022-12-18T07:31:17.196Z,18.70
2022-12-18T07:33:44.016Z,18.75
2022-12-18T07:36:10.686Z,18.17
2022-12-18T07:38:37.579Z,20.00
2022-12-18T07:41:04.316Z,17.90
2022-12-18T07:43:33.435Z,18.42
2022-12-18T07:46:00.208Z,18.77
2022-12-18T07:48:27.353Z,18.48
2022-12-18T07:50:54.037Z,18.92
2022-12-18T07:53:20.791Z,19.45
2022-12-18T07:56:18.462Z,18.13
2022-12-18T07:58:34.127Z,19.10
2022-12-18T08:01:00.823Z,18.65
2022-12-18T08:03:27.525Z,20.20
2022-12-18T08:05:54.549Z,18.90
2022-12-18T08:08:21.300Z,18.27
2022-12-18T08:10:48.278Z,17.98
2022-12-18T08:13:15.044Z,18.90
2022-12-18T08:15:41.695Z,19.30
2022-12-18T08:18:13.906Z,19.42
2022-12-18T08:20:42.582Z,19.15
2022-12-18T08:23:09.267Z,19.08
2022-12-18T08:25:35.924Z,18.85
2022-12-18T08:28:02.646Z,19.75
2022-12-18T08:30:29.417Z,20.30
2022-12-18T08:32:56.174Z,19.40
2022-12-18T08:35:22.927Z,19.27
2022-12-18T08:37:49.694Z,19.08
2022-12-18T08:40:16.446Z,19.88
2022-12-18T08:43:01.746Z,19.58
2022-12-18T08:45:28.412Z,19.87
2022-12-18T08:47:55.085Z,19.70
2022-12-18T08:50:21.973Z,19.88
2022-12-18T08:52:48.685Z,18.80
2022-12-18T08:55:15.359Z,19.42
2022-12-18T08:57:42.084Z,19.60
2022-12-18T09:00:08.856Z,20.10
2022-12-18T09:02:35.734Z,21.50
2022-12-18T09:05:02.572Z,19.33
2022-12-18T09:07:29.238Z,19.65
2022-12-18T09:09:56.317Z,19.95
2022-12-18T09:12:23.139Z,20.90
2022-12-18T09:14:49.791Z,20.38
2022-12-18T09:17:16.549Z,20.15
2022-12-18T09:19:43.335Z,19.95
2022-12-18T09:22:10.690Z,21.33
2022-12-18T09:24:37.404Z,20.95
2022-12-18T09:27:04.199Z,20.83
2022-12-18T09:29:31.202Z,20.13
2022-12-18T09:31:57.971Z,20.15
2022-12-18T09:34:24.680Z,19.52
2022-12-18T09:36:51.345Z,20.52
2022-12-18T09:39:18.152Z,20.63
2022-12-18T09:41:48.678Z,19.75
2022-12-18T09:44:15.654Z,18.88
2022-12-18T09:46:42.560Z,19.05
2022-12-18T09:49:09.496Z,17.95
2022-12-18T09:51:36.190Z,20.48
2022-12-18T09:54:04.425Z,17.88
2022-12-18T09:56:31.101Z,18.65
2022-12-18T09:58:57.778Z,18.15
2022-12-18T10:01:25.003Z,18.42
2022-12-18T10:03:52.730Z,18.15
2022-12-18T10:06:19.426Z,17.80
2022-12-18T10:08:46.121Z,17.98
2022-12-18T10:11:12.786Z,17.92
2022-12-18T10:13:39.471Z,17.52
2022-12-18T10:16:06.221Z,17.00
2022-12-18T10:18:32.995Z,17.35
2022-12-18T10:21:00.110Z,16.83
2022-12-18T10:23:26.793Z,18.40
2022-12-18T10:25:53.560Z,17.63
2022-12-18T10:28:20.243Z,17.35
2022-12-18T10:30:47.015Z,17.40
2022-12-18T10:33:14.071Z,17.67
2022-12-18T10:35:40.841Z,17.80
2022-12-18T10:38:07.620Z,16.48
2022-12-18T10:40:34.953Z,15.90
2022-12-18T10:43:01.642Z,16.80
2022-12-18T10:45:28.339Z,17.20
2022-12-18T10:47:55.034Z,16.38
2022-12-18T10:50:21.744Z,16.23
2022-12-18T10:52:48.471Z,16.35
2022-12-18T10:55:15.141Z,15.75
2022-12-18T10:57:42.619Z,16.58
2022-12-18T11:00:09.380Z,15.65
2022-12-18T11:02:36.406Z,16.13
2022-12-18T11:05:03.182Z,16.52
2022-12-18T11:07:29.875Z,16.27
2022-12-18T11:09:56.562Z,16.67
2022-12-18T11:12:23.252Z,17.42
2022-12-18T11:14:49.980Z,17.60
2022-12-18T11:17:25.783Z,17.95
2022-12-18T11:19:53.135Z,17.10
2022-12-18T11:22:19.871Z,18.55
2022-12-18T11:24:57.416Z,19.33
2022-12-18T11:27:33.257Z,17.85
2022-12-18T11:29:59.918Z,19.08
2022-12-18T11:32:26.706Z,18.52
2022-12-18T11:34:58.781Z,18.95
2022-12-18T11:37:26.690Z,20.15
2022-12-18T11:39:53.943Z,19.30
2022-12-18T11:42:20.656Z,18.85
2022-12-18T11:44:47.401Z,19.52
2022-12-18T11:47:14.153Z,19.60
2022-12-18T11:49:41.009Z,18.85
2022-12-18T11:52:07.729Z,20.42
2022-12-18T11:54:34.461Z,19.63
2022-12-18T11:57:01.200Z,19.90
2022-12-18T11:59:27.870Z,20.10
2022-12-18T12:01:55.035Z,19.70
2022-12-18T12:04:22.044Z,18.98
2022-12-18T12:06:48.797Z,21.20
2022-12-18T12:09:15.583Z,20.38
2022-12-18T12:11:42.315Z,20.05
2022-12-18T12:14:08.990Z,19.70
2022-12-18T12:16:35.747Z,19.40
2022-12-18T12:19:02.572Z,19.77
2022-12-18T12:21:29.216Z,18.77
2022-12-18T12:23:56.919Z,19.02
2022-12-18T12:26:23.601Z,18.63
2022-12-18T12:28:50.343Z,19.65
2022-12-18T12:31:17.099Z,18.80
2022-12-18T12:33:44.194Z,18.08
2022-12-18T12:36:11.219Z,20.02
2022-12-18T12:38:37.896Z,18.10
2022-12-18T12:41:04.729Z,17.75
2022-12-18T12:43:31.593Z,18.25
2022-12-18T12:45:58.776Z,18.98
2022-12-18T12:48:25.513Z,19.60
2022-12-18T12:50:52.694Z,19.75
2022-12-18T12:53:19.473Z,18.92
2022-12-18T12:55:46.138Z,17.90
2022-12-18T12:58:13.424Z,19.27
2022-12-18T13:00:40.113Z,19.10
2022-12-18T13:03:07.870Z,18.88
2022-12-18T13:05:34.594Z,18.63
2022-12-18T13:08:01.342Z,19.02
2022-12-18T13:10:28.130Z,18.73
2022-12-18T13:12:58.339Z,19.65
2022-12-18T13:15:24.999Z,18.55
2022-12-18T13:17:51.914Z,19.08
2022-12-18T13:20:18.707Z,18.70
2022-12-18T13:22:45.520Z,17.67
2022-12-18T13:25:12.670Z,18.40
2022-12-18T13:27:39.584Z,16.88
2022-12-18T13:30:06.229Z,17.63
2022-12-18T13:32:33.469Z,16.05
2022-12-18T13:35:00.264Z,17.10
2022-12-18T13:37:26.951Z,16.00
2022-12-18T13:39:53.650Z,15.57
2022-12-18T13:42:49.148Z,16.55
2022-12-18T13:45:15.961Z,15.13
2022-12-18T13:47:42.626Z,13.98
2022-12-18T13:50:09.363Z,13.90
2022-12-18T13:52:36.187Z,13.55
2022-12-18T13:55:02.886Z,12.85
2022-12-18T13:57:29.565Z,13.20
2022-12-18T13:59:56.595Z,13.32
2022-12-18T14:02:23.519Z,14.38
2022-12-18T14:04:50.517Z,13.63
2022-12-18T14:07:17.341Z,13.60
2022-12-18T14:09:44.612Z,13.82
2022-12-18T14:12:31.137Z,12.98
2022-12-18T14:14:57.837Z,13.20
2022-12-18T14:17:24.798Z,12.43
2022-12-18T14:19:51.735Z,12.27
2022-12-18T14:22:18.546Z,13.85
2022-12-18T14:24:45.335Z,12.02
2022-12-18T14:27:12.023Z,12.40
2022-12-18T14:29:38.740Z,11.80
2022-12-18T14:32:05.410Z,12.13
2022-12-18T14:34:32.169Z,11.68
2022-12-18T14:36:58.883Z,13.43
2022-12-18T14:39:26.511Z,15.23
2022-12-18T14:41:54.307Z,11.88
2022-12-18T14:44:22.489Z,11.80
2022-12-18T14:46:49.285Z,11.32
2022-12-18T14:49:15.971Z,12.55
2022-12-18T14:51:42.660Z,12.18
2022-12-18T14:54:10.926Z,12.15
2022-12-18T14:56:37.892Z,12.65
2022-12-18T14:59:04.632Z,13.05
2022-12-18T15:01:31.661Z,11.80
2022-12-18T15:03:58.620Z,11.52
2022-12-18T15:06:25.820Z,10.77
2022-12-18T15:08:52.529Z,11.15
2022-12-18T15:11:19.212Z,10.80
2022-12-18T15:13:45.907Z,10.77
2022-12-18T15:16:12.788Z,10.38
2022-12-18T15:18:39.484Z,10.23
2022-12-18T15:21:06.845Z,9.98
2022-12-18T15:23:34.205Z,11.00
2022-12-18T15:26:00.922Z,10.10
2022-12-18T15:28:27.609Z,10.95
2022-12-18T15:30:54.342Z,10.75
2022-12-18T15:33:21.084Z,9.80
2022-12-18T15:35:47.768Z,9.38
2022-12-18T15:38:14.493Z,9.82
2022-12-18T15:40:41.302Z,10.60
2022-12-18T15:43:26.837Z,9.85
2022-12-18T15:45:53.597Z,8.98
2022-12-18T15:48:20.250Z,9.80
2022-12-18T15:50:47.059Z,9.23
2022-12-18T15:53:13.783Z,9.20
2022-12-18T15:56:01.202Z,9.70
2022-12-18T15:58:28.168Z,8.85
2022-12-18T16:00:54.836Z,8.27
2022-12-18T16:03:21.653Z,7.95
2022-12-18T16:05:48.471Z,8.35
2022-12-18T16:08:15.237Z,7.38
2022-12-18T16:10:42.005Z,6.97
2022-12-18T16:13:08.705Z,7.38
2022-12-18T16:15:35.495Z,7.25
2022-12-18T16:18:02.163Z,7.07
2022-12-18T16:20:28.841Z,6.53
2022-12-18T16:22:55.644Z,6.28
2022-12-18T16:25:22.387Z,5.65
2022-12-18T16:27:49.187Z,4.97
2022-12-18T16:30:16.588Z,4.72
2022-12-18T16:32:43.271Z,5.78
2022-12-18T16:35:09.965Z,4.50
2022-12-18T16:37:36.662Z,5.05
2022-12-18T16:40:03.339Z,4.43
2022-12-18T16:42:30.057Z,3.90
2022-12-18T16:44:56.762Z,4.05
2022-12-18T16:47:23.465Z,4.45
2022-12-18T16:49:52.900Z,3.97
2022-12-18T16:52:19.584Z,5.13
2022-12-18T16:54:46.427Z,4.60
2022-12-18T16:57:13.115Z,4.00
2022-12-18T16:59:39.794Z,3.53
2022-12-18T17:02:07.281Z,4.22
2022-12-18T17:04:34.735Z,3.90
2022-12-18T17:07:01.496Z,4.13
2022-12-18T17:09:28.413Z,4.78
2022-12-18T17:11:55.100Z,4.55
2022-12-18T17:14:21.849Z,4.70
2022-12-18T17:16:57.832Z,3.95
2022-12-18T17:19:35.331Z,4.70
2022-12-18T17:22:02.554Z,5.70
2022-12-18T17:24:34.520Z,4.88
2022-12-18T17:27:01.748Z,4.93
2022-12-18T17:29:28.455Z,4.53
2022-12-18T17:31:55.108Z,4.47
2022-12-18T17:34:24.145Z,4.53
2022-12-18T17:36:50.815Z,4.20
2022-12-18T17:39:18.252Z,4.30
2022-12-18T17:41:45.813Z,5.13
2022-12-18T17:44:12.515Z,4.60
2022-12-18T17:46:40.927Z,4.20
2022-12-18T17:49:07.681Z,4.20
2022-12-18T17:51:34.431Z,5.22
2022-12-18T17:54:01.154Z,4.68
2022-12-18T17:56:27.901Z,6.00
2022-12-18T17:58:54.687Z,4.32
2022-12-18T18:01:21.492Z,5.13
2022-12-18T18:03:51.586Z,5.40
2022-12-18T18:06:20.640Z,5.07
2022-12-18T18:08:47.455Z,5.88
2022-12-18T18:11:33.401Z,11.25
2022-12-18T18:14:03.125Z,25.27
2022-12-18T18:16:29.881Z,13.50
2022-12-18T18:18:56.604Z,14.80
2022-12-18T18:21:23.318Z,5.97
2022-12-18T18:23:52.601Z,5.28
2022-12-18T18:26:19.898Z,5.55
2022-12-18T18:28:46.777Z,6.80
2022-12-18T18:31:13.541Z,4.95
2022-12-18T18:33:40.531Z,4.40
2022-12-18T18:36:09.099Z,4.35
2022-12-18T18:38:35.873Z,4.40
2022-12-18T18:41:02.833Z,4.32
2022-12-18T18:43:29.549Z,5.63
2022-12-18T18:45:56.371Z,4.93
2022-12-18T18:48:23.187Z,4.65
2022-12-18T18:50:51.649Z,4.28
2022-12-18T18:53:18.706Z,3.53
2022-12-18T18:55:49.142Z,5.15
2022-12-18T18:58:25.916Z,5.43
2022-12-18T19:00:52.762Z,3.75
2022-12-18T19:03:20.987Z,5.18
2022-12-18T19:05:49.236Z,5.03
2022-12-18T19:08:17.209Z,4.53
2022-12-18T19:10:43.919Z,4.35
2022-12-18T19:13:24.673Z,3.80
2022-12-18T19:15:51.429Z,4.00
2022-12-18T19:18:18.362Z,4.03
2022-12-18T19:20:45.543Z,4.13
2022-12-18T19:23:12.327Z,4.32
2022-12-18T19:25:42.056Z,4.38
2022-12-18T19:28:18.162Z,4.13
2022-12-18T19:30:48.913Z,3.92
2022-12-18T19:33:41.718Z,3.95
2022-12-18T19:36:02.355Z,4.20
2022-12-18T19:38:31.359Z,4.25
2022-12-18T19:40:59.890Z,4.95
2022-12-18T19:43:26.661Z,4.10
2022-12-18T19:45:53.462Z,4.07
2022-12-18T19:48:20.288Z,4.10
2022-12-18T19:50:46.954Z,4.35
2022-12-18T19:53:13.669Z,4.22
2022-12-18T19:55:40.393Z,4.72
2022-12-18T19:58:10.042Z,5.05
2022-12-18T20:00:36.823Z,4.15
2022-12-18T20:03:12.587Z,3.80
2022-12-18T20:05:45.086Z,4.70
2022-12-18T20:08:11.767Z,4.20
2022-12-18T20:10:38.502Z,3.35
2022-12-18T20:13:06.473Z,3.97
2022-12-18T20:15:33.322Z,4.45
2022-12-18T20:18:00.245Z,3.70
2022-12-18T20:20:27.042Z,3.80
2022-12-18T20:22:53.852Z,3.50
2022-12-18T20:25:20.607Z,4.05
2022-12-18T20:27:47.333Z,4.70
2022-12-18T20:30:14.062Z,3.88
2022-12-18T20:32:40.811Z,4.85
2022-12-18T20:35:07.612Z,5.05
2022-12-18T20:37:35.363Z,4.40
2022-12-18T20:40:05.904Z,4.15
2022-12-18T20:42:33.585Z,3.90
2022-12-18T20:45:00.265Z,3.92
2022-12-18T20:47:27.015Z,3.67
2022-12-18T20:49:53.674Z,3.08
2022-12-18T20:52:20.519Z,3.72
2022-12-18T20:54:48.730Z,3.30
2022-12-18T20:57:15.472Z,3.90
2022-12-18T20:59:47.871Z,3.50
2022-12-18T21:02:15.624Z,3.05
2022-12-18T21:04:42.524Z,3.28
2022-12-18T21:07:09.238Z,2.75
2022-12-18T21:09:38.111Z,2.60
2022-12-18T21:12:23.922Z,2.80
2022-12-18T21:14:50.606Z,2.60
2022-12-18T21:17:19.612Z,2.40
2022-12-18T21:19:46.435Z,2.45
2022-12-18T21:22:13.283Z,2.20
2022-12-18T21:24:39.962Z,2.15
2022-12-18T21:27:06.669Z,2.03
2022-12-18T21:29:34.845Z,2.10
2022-12-18T21:32:01.757Z,2.83
2022-12-18T21:34:28.474Z,2.00
2022-12-18T21:36:55.222Z,2.05
2022-12-18T21:39:22.553Z,2.05
2022-12-18T21:42:07.915Z,1.90
2022-12-18T21:44:35.794Z,1.80
2022-12-18T21:47:22.029Z,1.70
2022-12-18T21:49:49.860Z,1.98
2022-12-18T21:52:16.940Z,2.00
2022-12-18T21:54:43.642Z,2.17
2022-12-18T21:57:10.930Z,2.10
2022-12-18T21:59:37.670Z,2.10
2022-12-18T22:02:04.426Z,2.35
2022-12-18T22:04:31.263Z,1.70
2022-12-18T22:06:58.243Z,2.15
2022-12-18T22:09:25.057Z,1.70
2022-12-18T22:11:51.744Z,2.20
2022-12-18T22:14:18.458Z,1.50
2022-12-18T22:16:45.111Z,1.50
2022-12-18T22:19:11.956Z,1.40
2022-12-18T22:21:38.812Z,2.47
2022-12-18T22:24:05.597Z,2.20
2022-12-18T22:26:37.884Z,1.60
2022-12-18T22:29:25.231Z,1.90
2022-12-18T22:31:51.936Z,1.88
2022-12-18T22:34:22.866Z,1.50
2022-12-18T22:36:50.106Z,1.40
2022-12-18T22:39:16.802Z,1.33
2022-12-18T22:41:43.500Z,1.67
2022-12-18T22:44:10.221Z,1.30
2022-12-18T22:46:38.829Z,1.02
2022-12-18T22:49:05.610Z,1.00
2022-12-18T22:51:32.434Z,1.00
2022-12-18T22:53:59.223Z,1.30
2022-12-18T22:56:25.975Z,1.25
2022-12-18T22:58:53.318Z,1.20
2022-12-18T23:01:20.183Z,1.73
2022-12-18T23:03:47.035Z,1.30
2022-12-18T23:06:13.731Z,1.58
2022-12-18T23:08:40.462Z,1.55
2022-12-18T23:11:07.266Z,1.73
2022-12-18T23:13:33.935Z,1.70
2022-12-18T23:16:00.710Z,2.00
2022-12-18T23:18:27.431Z,1.63
2022-12-18T23:20:54.160Z,1.98
2022-12-18T23:23:21.219Z,2.38
2022-12-18T23:25:47.890Z,1.90
2022-12-18T23:28:15.057Z,2.00
2022-12-18T23:30:42.251Z,2.50
2022-12-18T23:33:08.956Z,1.80
2022-12-18T23:35:35.705Z,2.15
2022-12-18T23:38:02.408Z,2.20
2022-12-18T23:40:29.392Z,1.80
2022-12-18T23:42:56.249Z,1.58
2022-12-18T23:45:22.941Z,1.50
2022-12-18T23:47:51.048Z,1.67
2022-12-18T23:50:18.089Z,2.40
2022-12-18T23:52:44.754Z,1.45
2022-12-18T23:55:11.423Z,1.45
2022-12-18T23:57:38.147Z,1.85
